createdAt,value
2022-09-06T00:00:43.253Z,7.66
2022-09-06T00:01:43.039Z,7.71
2022-09-06T00:02:42.598Z,7.75
2022-09-06T00:03:42.573Z,7.76
2022-09-06T00:04:41.969Z,7.74
2022-09-06T00:05:43.913Z,7.71
2022-09-06T00:06:42.077Z,7.65
2022-09-06T00:07:42.167Z,7.53
2022-09-06T00:08:43.697Z,7.42
2022-09-06T00:09:42.010Z,7.32
2022-09-06T00:10:43.192Z,7.22
2022-09-06T00:11:42.046Z,7.13
2022-09-06T00:12:42.209Z,7.07
2022-09-06T00:13:42.148Z,7.02
2022-09-06T00:14:42.014Z,6.97
2022-09-06T00:15:42.137Z,6.95
2022-09-06T00:16:42.037Z,6.97
2022-09-06T00:17:42.067Z,7.03
2022-09-06T00:18:42.447Z,7.12
2022-09-06T00:19:42.056Z,7.31
2022-09-06T00:20:42.210Z,7.59
2022-09-06T00:21:42.060Z,7.86
2022-09-06T00:22:42.420Z,8.01
2022-09-06T00:23:42.044Z,8.11
2022-09-06T00:24:42.016Z,8.14
2022-09-06T00:26:41.981Z,8.10
2022-09-06T00:27:42.018Z,8.03
2022-09-06T00:28:42.262Z,7.94
2022-09-06T00:29:42.464Z,7.79
2022-09-06T00:30:42.100Z,7.62
2022-09-06T00:31:41.999Z,7.44
2022-09-06T00:32:42.060Z,7.27
2022-09-06T00:33:42.262Z,7.12
2022-09-06T00:34:42.334Z,6.99
2022-09-06T00:35:42.062Z,6.88
2022-09-06T00:36:41.950Z,6.80
2022-09-06T00:37:41.961Z,6.71
2022-09-06T00:38:43.451Z,6.65
2022-09-06T00:39:42.179Z,6.62
2022-09-06T00:40:42.702Z,6.60
2022-09-06T00:41:42.105Z,6.62
2022-09-06T00:42:42.375Z,6.65
2022-09-06T00:43:43.088Z,6.68
2022-09-06T00:44:42.370Z,6.70
2022-09-06T00:45:42.013Z,6.72
2022-09-06T00:46:47.560Z,6.74
2022-09-06T00:47:43.876Z,6.70
2022-09-06T00:48:43.443Z,6.64
2022-09-06T00:49:47.325Z,6.53
2022-09-06T00:50:42.193Z,6.42
2022-09-06T00:51:42.352Z,6.30
2022-09-06T00:52:43.753Z,6.24
2022-09-06T00:53:42.181Z,6.20
2022-09-06T00:54:43.316Z,6.18
2022-09-06T00:55:43.248Z,6.20
2022-09-06T00:56:44.165Z,6.22
2022-09-06T00:57:42.709Z,6.26
2022-09-06T00:58:42.495Z,6.32
2022-09-06T00:59:43.232Z,6.37
2022-09-06T01:00:42.003Z,6.42
2022-09-06T01:01:42.394Z,6.47
2022-09-06T01:02:42.233Z,6.53
2022-09-06T01:03:45.346Z,6.58
2022-09-06T01:04:44.450Z,6.63
2022-09-06T01:05:55.283Z,6.67
2022-09-06T01:06:58.707Z,6.66
2022-09-06T01:07:49.488Z,6.65
2022-09-06T01:08:50.421Z,6.64
2022-09-06T01:09:56.843Z,6.60
2022-09-06T01:10:50.682Z,6.52
2022-09-06T01:11:49.604Z,6.44
2022-09-06T01:12:55.790Z,6.40
2022-09-06T01:13:57.473Z,6.37
2022-09-06T01:15:52.164Z,6.39
2022-09-06T01:16:54.729Z,6.43
2022-09-06T01:17:49.185Z,6.50
2022-09-06T01:19:00.035Z,6.58
2022-09-06T01:20:00.015Z,6.66
2022-09-06T01:20:56.194Z,6.73
2022-09-06T01:21:48.156Z,6.78
2022-09-06T01:23:00.029Z,6.81
2022-09-06T01:23:54.614Z,6.82
2022-09-06T01:24:51.795Z,6.85
2022-09-06T01:26:51.736Z,6.82
2022-09-06T01:28:00.105Z,6.80
2022-09-06T01:28:45.630Z,6.78
2022-09-06T01:30:49.691Z,6.77
2022-09-06T01:31:52.144Z,6.75
2022-09-06T01:32:57.324Z,6.71
2022-09-06T01:33:57.311Z,6.68
2022-09-06T01:34:48.352Z,6.66
2022-09-06T01:37:43.384Z,6.65
2022-09-06T01:38:42.180Z,6.66
2022-09-06T01:39:42.774Z,6.67
2022-09-06T01:40:41.956Z,6.70
2022-09-06T01:41:41.993Z,6.74
2022-09-06T01:42:44.776Z,6.78
2022-09-06T01:43:47.686Z,6.83
2022-09-06T01:44:46.229Z,6.89
2022-09-06T01:45:51.606Z,6.98
2022-09-06T01:46:49.979Z,7.09
2022-09-06T01:47:49.569Z,7.22
2022-09-06T01:49:00.297Z,7.36
2022-09-06T01:49:57.244Z,7.48
2022-09-06T01:50:59.014Z,7.56
2022-09-06T01:51:57.775Z,7.61
2022-09-06T01:52:57.157Z,7.65
2022-09-06T01:53:58.350Z,7.71
2022-09-06T01:54:54.466Z,7.80
2022-09-06T01:55:55.753Z,7.89
2022-09-06T01:56:54.393Z,7.97
2022-09-06T01:58:00.115Z,8.01
2022-09-06T01:59:00.053Z,8.05
2022-09-06T01:59:59.459Z,8.07
2022-09-06T02:00:53.020Z,8.13
2022-09-06T02:01:55.825Z,8.19
2022-09-06T02:02:50.021Z,8.27
2022-09-06T02:03:54.864Z,8.36
2022-09-06T02:04:48.000Z,8.44
2022-09-06T02:05:54.384Z,8.47
2022-09-06T02:06:46.746Z,8.53
2022-09-06T02:07:44.103Z,8.57
2022-09-06T02:08:48.790Z,8.61
2022-09-06T02:09:45.937Z,8.63
2022-09-06T02:10:52.001Z,8.66
2022-09-06T02:11:46.836Z,8.67
2022-09-06T02:12:45.893Z,8.71
2022-09-06T02:13:54.637Z,8.70
2022-09-06T02:14:52.990Z,8.69
2022-09-06T02:15:47.989Z,8.64
2022-09-06T02:16:45.509Z,8.61
2022-09-06T02:17:47.950Z,8.58
2022-09-06T02:18:45.190Z,8.54
2022-09-06T02:19:49.460Z,8.52
2022-09-06T02:20:50.155Z,8.49
2022-09-06T02:21:46.378Z,8.44
2022-09-06T02:22:45.539Z,8.40
2022-09-06T02:23:43.809Z,8.35
2022-09-06T02:24:45.355Z,8.32
2022-09-06T02:25:48.784Z,8.31
2022-09-06T02:26:44.602Z,8.32
2022-09-06T02:27:41.938Z,8.35
2022-09-06T02:30:46.709Z,8.34
2022-09-06T02:31:44.592Z,8.33
2022-09-06T02:32:50.385Z,8.32
2022-09-06T02:33:44.940Z,8.28
2022-09-06T02:34:43.344Z,8.26
2022-09-06T02:35:47.734Z,8.22
2022-09-06T02:36:42.032Z,8.18
2022-09-06T02:37:42.973Z,8.15
2022-09-06T02:38:44.832Z,8.13
2022-09-06T02:40:43.376Z,8.11
2022-09-06T02:41:44.192Z,8.12
2022-09-06T02:42:42.067Z,8.11
2022-09-06T02:43:43.814Z,8.17
2022-09-06T02:44:42.143Z,8.22
2022-09-06T02:45:41.966Z,8.28
2022-09-06T02:46:42.102Z,8.38
2022-09-06T02:47:41.901Z,8.48
2022-09-06T02:48:42.248Z,8.53
2022-09-06T02:50:41.964Z,8.50
2022-09-06T02:51:42.130Z,8.44
2022-09-06T02:52:42.003Z,8.38
2022-09-06T02:53:41.897Z,8.33
2022-09-06T02:54:41.868Z,8.28
2022-09-06T02:55:42.798Z,8.26
2022-09-06T02:56:42.161Z,8.24
2022-09-06T02:57:41.893Z,8.23
2022-09-06T02:58:41.937Z,8.22
2022-09-06T03:00:42.179Z,8.18
2022-09-06T03:01:42.078Z,8.16
2022-09-06T03:02:41.910Z,8.14
2022-09-06T03:04:41.889Z,8.16
2022-09-06T03:05:47.251Z,8.18
2022-09-06T03:06:41.902Z,8.19
2022-09-06T03:07:41.908Z,8.24
2022-09-06T03:08:41.888Z,8.29
2022-09-06T03:09:41.883Z,8.35
2022-09-06T03:10:42.218Z,8.41
2022-09-06T03:11:41.867Z,8.45
2022-09-06T03:12:43.672Z,8.49
2022-09-06T03:13:42.292Z,8.54
2022-09-06T03:14:41.851Z,8.56
2022-09-06T03:15:41.857Z,8.58
2022-09-06T03:16:41.902Z,8.60
2022-09-06T03:17:42.467Z,8.62
2022-09-06T03:18:42.026Z,8.65
2022-09-06T03:19:41.843Z,8.67
2022-09-06T03:20:41.846Z,8.70
2022-09-06T03:21:41.852Z,8.74
2022-09-06T03:22:42.373Z,8.76
2022-09-06T03:23:41.893Z,8.79
2022-09-06T03:24:41.841Z,8.84
2022-09-06T03:25:43.304Z,8.92
2022-09-06T03:26:41.881Z,8.96
2022-09-06T03:28:43.271Z,8.93
2022-09-06T03:29:41.925Z,8.83
2022-09-06T03:30:45.102Z,8.72
2022-09-06T03:31:41.874Z,8.60
2022-09-06T03:32:41.839Z,8.49
2022-09-06T03:33:41.948Z,8.43
2022-09-06T03:34:41.929Z,8.41
2022-09-06T03:35:47.785Z,8.42
2022-09-06T03:37:41.818Z,8.40
2022-09-06T03:38:41.841Z,8.33
2022-09-06T03:39:42.002Z,8.25
2022-09-06T03:40:41.901Z,8.21
2022-09-06T03:41:41.951Z,8.20
2022-09-06T03:42:41.931Z,8.24
2022-09-06T03:43:41.876Z,8.28
2022-09-06T03:44:42.028Z,8.33
2022-09-06T03:45:46.117Z,8.41
2022-09-06T03:46:41.863Z,8.49
2022-09-06T03:47:41.902Z,8.55
2022-09-06T03:48:42.242Z,8.60
2022-09-06T03:49:41.817Z,8.62
2022-09-06T03:50:46.570Z,8.63
2022-09-06T03:51:41.904Z,8.62
2022-09-06T03:52:42.566Z,8.58
2022-09-06T03:53:41.855Z,8.53
2022-09-06T03:54:41.893Z,8.46
2022-09-06T03:55:44.943Z,8.37
2022-09-06T03:56:41.797Z,8.27
2022-09-06T03:57:41.853Z,8.18
2022-09-06T03:58:41.943Z,8.14
2022-09-06T03:59:41.824Z,8.09
2022-09-06T04:00:41.927Z,8.07
2022-09-06T04:01:41.923Z,8.03
2022-09-06T04:02:41.948Z,7.99
2022-09-06T04:03:47.037Z,7.95
2022-09-06T04:04:41.834Z,7.93
2022-09-06T04:05:45.460Z,7.90
2022-09-06T04:06:41.851Z,7.89
2022-09-06T04:09:41.947Z,7.91
2022-09-06T04:11:45.041Z,7.94
2022-09-06T04:12:41.931Z,7.97
2022-09-06T04:14:41.811Z,7.98
2022-09-06T04:16:41.935Z,7.97
2022-09-06T04:17:46.082Z,7.95
2022-09-06T04:18:41.956Z,7.91
2022-09-06T04:19:42.131Z,7.87
2022-09-06T04:20:42.019Z,7.84
2022-09-06T04:21:41.884Z,7.79
2022-09-06T04:22:41.826Z,7.75
2022-09-06T04:23:41.966Z,7.71
2022-09-06T04:24:41.876Z,7.69
2022-09-06T04:25:41.872Z,7.67
2022-09-06T04:26:41.805Z,7.66
2022-09-06T04:27:41.805Z,7.63
2022-09-06T04:28:41.897Z,7.64
2022-09-06T04:29:41.879Z,7.63
2022-09-06T04:31:41.977Z,7.64
2022-09-06T04:32:41.936Z,7.65
2022-09-06T04:34:42.436Z,7.64
2022-09-06T04:35:41.807Z,7.65
2022-09-06T04:39:41.814Z,7.66
2022-09-06T04:41:42.768Z,7.65
2022-09-06T04:43:42.473Z,7.64
2022-09-06T04:45:42.773Z,7.63
2022-09-06T04:47:42.086Z,7.61
2022-09-06T04:48:41.791Z,7.60
2022-09-06T04:49:42.319Z,7.57
2022-09-06T04:50:41.862Z,7.54
2022-09-06T04:51:41.788Z,7.51
2022-09-06T04:52:41.767Z,7.49
2022-09-06T04:53:42.061Z,7.46
2022-09-06T04:54:41.892Z,7.43
2022-09-06T04:55:41.891Z,7.41
2022-09-06T04:56:41.855Z,7.39
2022-09-06T04:57:45.810Z,7.38
2022-09-06T05:00:44.785Z,7.39
2022-09-06T05:04:41.905Z,7.40
2022-09-06T05:05:41.911Z,7.38
2022-09-06T05:06:43.169Z,7.37
2022-09-06T05:07:41.815Z,7.35
2022-09-06T05:08:42.341Z,7.33
2022-09-06T05:09:41.772Z,7.30
2022-09-06T05:10:41.822Z,7.28
2022-09-06T05:11:41.843Z,7.27
2022-09-06T05:12:44.301Z,7.24
2022-09-06T05:14:41.900Z,7.23
2022-09-06T05:15:41.832Z,7.21
2022-09-06T05:16:42.079Z,7.20
2022-09-06T05:17:41.769Z,7.19
2022-09-06T05:22:42.041Z,7.18
2022-09-06T05:23:41.752Z,7.16
2022-09-06T05:24:41.818Z,7.14
2022-09-06T05:25:41.751Z,7.10
2022-09-06T05:26:41.805Z,7.07
2022-09-06T05:27:41.751Z,7.03
2022-09-06T05:28:41.881Z,6.99
2022-09-06T05:29:41.756Z,6.95
2022-09-06T05:30:41.849Z,6.89
2022-09-06T05:31:41.810Z,6.83
2022-09-06T05:32:43.078Z,6.78
2022-09-06T05:33:41.768Z,6.73
2022-09-06T05:34:41.801Z,6.69
2022-09-06T05:35:41.841Z,6.65
2022-09-06T05:36:42.237Z,6.60
2022-09-06T05:37:42.794Z,6.59
2022-09-06T05:38:41.798Z,6.56
2022-09-06T05:39:41.827Z,6.54
2022-09-06T05:40:43.110Z,6.53
2022-09-06T05:41:41.762Z,6.52
2022-09-06T05:42:41.735Z,6.51
2022-09-06T05:43:41.727Z,6.50
2022-09-06T05:46:45.491Z,6.51
2022-09-06T05:47:41.748Z,6.53
2022-09-06T05:48:41.848Z,6.55
2022-09-06T05:49:41.819Z,6.57
2022-09-06T05:50:41.735Z,6.59
2022-09-06T05:51:42.355Z,6.61
2022-09-06T05:52:41.889Z,6.63
2022-09-06T05:53:45.268Z,6.64
2022-09-06T05:55:43.162Z,6.63
2022-09-06T05:57:41.843Z,6.62
2022-09-06T05:59:41.766Z,6.61
2022-09-06T06:01:51.130Z,6.60
2022-09-06T06:02:42.142Z,6.59
2022-09-06T06:03:44.642Z,6.58
2022-09-06T06:05:41.765Z,6.57
2022-09-06T06:06:41.764Z,6.55
2022-09-06T06:07:41.783Z,6.54
2022-09-06T06:08:41.794Z,6.52
2022-09-06T06:09:42.239Z,6.51
2022-09-06T06:10:41.762Z,6.50
2022-09-06T06:11:42.415Z,6.48
2022-09-06T06:13:43.312Z,6.47
2022-09-06T06:14:41.735Z,6.45
2022-09-06T06:15:41.728Z,6.44
2022-09-06T06:16:41.789Z,6.42
2022-09-06T06:17:41.717Z,6.39
2022-09-06T06:18:42.161Z,6.37
2022-09-06T06:19:41.711Z,6.36
2022-09-06T06:20:41.749Z,6.35
2022-09-06T06:21:41.737Z,6.33
2022-09-06T06:22:41.706Z,6.32
2022-09-06T06:23:43.396Z,6.31
2022-09-06T06:24:41.771Z,6.28
2022-09-06T06:25:41.769Z,6.26
2022-09-06T06:26:41.757Z,6.21
2022-09-06T06:27:41.705Z,6.17
2022-09-06T06:28:42.058Z,6.11
2022-09-06T06:29:41.754Z,6.04
2022-09-06T06:30:41.745Z,5.97
2022-09-06T06:31:42.230Z,5.89
2022-09-06T06:32:41.699Z,5.83
2022-09-06T06:33:42.714Z,5.81
2022-09-06T06:34:41.753Z,5.79
2022-09-06T06:37:42.504Z,5.78
2022-09-06T06:38:43.549Z,5.76
2022-09-06T06:39:41.829Z,5.75
2022-09-06T06:40:45.831Z,5.73
2022-09-06T06:41:41.726Z,5.71
2022-09-06T06:43:42.505Z,5.70
2022-09-06T06:45:42.110Z,5.69
2022-09-06T06:46:41.987Z,5.71
2022-09-06T06:47:41.705Z,5.74
2022-09-06T06:48:43.861Z,5.76
2022-09-06T06:49:41.718Z,5.79
2022-09-06T06:50:41.709Z,5.81
2022-09-06T06:51:41.777Z,5.82
2022-09-06T06:52:41.769Z,5.84
2022-09-06T06:53:42.037Z,5.85
2022-09-06T06:54:43.065Z,5.86
2022-09-06T06:55:49.170Z,5.87
2022-09-06T06:57:41.776Z,5.88
2022-09-06T06:59:41.715Z,5.87
2022-09-06T07:01:41.865Z,5.86
2022-09-06T07:02:41.683Z,5.85
2022-09-06T07:04:41.919Z,5.83
2022-09-06T07:06:11.791Z,5.82
2022-09-06T07:08:42.157Z,5.79
2022-09-06T07:10:42.102Z,5.79
2022-09-06T07:11:42.313Z,5.78
2022-09-06T07:12:41.938Z,5.77
2022-09-06T07:13:42.019Z,5.76
2022-09-06T07:14:41.661Z,5.75
2022-09-06T07:17:41.692Z,5.74
2022-09-06T07:18:42.589Z,5.72
2022-09-06T07:21:41.888Z,5.71
2022-09-06T07:22:42.210Z,5.70
2022-09-06T07:24:41.839Z,5.69
2022-09-06T07:25:41.737Z,5.68
2022-09-06T07:28:41.732Z,5.69
2022-09-06T07:29:41.712Z,5.70
2022-09-06T07:30:42.694Z,5.71
2022-09-06T07:35:42.047Z,5.70
2022-09-06T07:37:41.714Z,5.69
2022-09-06T07:39:41.944Z,5.68
2022-09-06T07:40:41.992Z,5.67
2022-09-06T07:42:42.763Z,5.65
2022-09-06T07:43:41.713Z,5.64
2022-09-06T07:44:41.693Z,5.63
2022-09-06T07:45:41.895Z,5.64
2022-09-06T07:46:41.870Z,5.63
2022-09-06T07:53:11.884Z,5.64
2022-09-06T07:53:43.577Z,5.65
2022-09-06T07:54:41.660Z,5.67
2022-09-06T07:55:41.670Z,5.70
2022-09-06T07:56:41.922Z,5.74
2022-09-06T07:57:41.641Z,5.77
2022-09-06T07:58:42.215Z,5.79
2022-09-06T07:59:43.030Z,5.80
2022-09-06T08:00:41.807Z,5.81
2022-09-06T08:02:42.476Z,5.80
2022-09-06T08:04:42.699Z,5.79
2022-09-06T08:07:41.998Z,5.78
2022-09-06T08:09:41.664Z,5.75
2022-09-06T08:14:41.717Z,5.76
2022-09-06T08:25:41.817Z,5.77
2022-09-06T08:27:41.839Z,5.78
2022-09-06T08:28:41.653Z,5.80
2022-09-06T08:29:41.706Z,5.81
2022-09-06T08:30:41.634Z,5.80
2022-09-06T08:32:42.961Z,5.79
2022-09-06T08:34:41.627Z,5.78
2022-09-06T08:35:41.751Z,5.77
2022-09-06T08:36:43.004Z,5.76
2022-09-06T08:41:47.782Z,5.75
2022-09-06T08:42:41.895Z,5.74
2022-09-06T08:43:51.413Z,5.73
2022-09-06T08:44:58.362Z,5.72
2022-09-06T08:45:42.535Z,5.71
2022-09-06T08:46:49.601Z,5.68
2022-09-06T08:48:42.889Z,5.67
2022-09-06T08:53:47.198Z,5.68
2022-09-06T08:55:55.183Z,5.67
2022-09-06T08:57:51.990Z,5.68
2022-09-06T08:58:58.540Z,5.67
2022-09-06T08:59:43.237Z,5.66
2022-09-06T09:00:47.532Z,5.65
2022-09-06T09:01:54.781Z,5.64
2022-09-06T09:02:46.278Z,5.63
2022-09-06T09:03:44.933Z,5.61
2022-09-06T09:04:46.324Z,5.60
2022-09-06T09:05:43.043Z,5.57
2022-09-06T09:06:41.698Z,5.56
2022-09-06T09:07:48.125Z,5.53
2022-09-06T09:08:54.406Z,5.52
2022-09-06T09:09:42.219Z,5.48
2022-09-06T09:10:52.672Z,5.46
2022-09-06T09:11:46.402Z,5.43
2022-09-06T09:12:47.331Z,5.40
2022-09-06T09:13:50.389Z,5.39
2022-09-06T09:15:41.613Z,5.43
2022-09-06T09:16:42.051Z,5.51
2022-09-06T09:17:42.683Z,5.59
2022-09-06T09:18:45.996Z,5.66
2022-09-06T09:19:43.382Z,5.74
2022-09-06T09:20:41.655Z,5.82
2022-09-06T09:21:41.746Z,5.91
2022-09-06T09:22:42.583Z,6.03
2022-09-06T09:23:41.624Z,6.13
2022-09-06T09:24:42.003Z,6.21
2022-09-06T09:25:42.482Z,6.29
2022-09-06T09:26:51.812Z,6.36
2022-09-06T09:27:42.014Z,6.41
2022-09-06T09:28:59.689Z,6.46
2022-09-06T09:30:55.211Z,6.59
2022-09-06T09:31:49.899Z,6.67
2022-09-06T09:32:45.270Z,6.71
2022-09-06T09:33:41.589Z,6.76
2022-09-06T09:34:41.640Z,6.81
2022-09-06T09:35:42.746Z,6.86
2022-09-06T09:39:42.067Z,6.96
2022-09-06T09:40:50.514Z,6.95
2022-09-06T09:41:43.835Z,6.94
2022-09-06T09:42:42.044Z,6.93
2022-09-06T09:43:52.163Z,6.88
2022-09-06T09:44:45.063Z,6.84
2022-09-06T09:45:41.976Z,6.79
2022-09-06T09:46:42.036Z,6.76
2022-09-06T09:47:41.845Z,6.74
2022-09-06T09:48:45.938Z,6.71
2022-09-06T09:49:41.560Z,6.69
2022-09-06T09:51:45.593Z,6.67
2022-09-06T09:52:45.590Z,6.66
2022-09-06T09:53:51.645Z,6.63
2022-09-06T09:54:44.718Z,6.61
2022-09-06T09:55:42.464Z,6.57
2022-09-06T09:56:53.124Z,6.52
2022-09-06T09:57:48.544Z,6.48
2022-09-06T09:58:41.558Z,6.45
2022-09-06T10:01:41.587Z,6.44
2022-09-06T10:04:47.741Z,6.46
2022-09-06T10:07:09.140Z,6.48
2022-09-06T10:08:44.235Z,6.50
2022-09-06T10:09:44.113Z,6.51
2022-09-06T10:10:47.001Z,6.53
2022-09-06T10:11:52.168Z,6.56
2022-09-06T10:12:43.323Z,6.59
2022-09-06T10:13:43.303Z,6.63
2022-09-06T10:14:46.357Z,6.66
2022-09-06T10:15:43.612Z,6.68
2022-09-06T10:16:45.805Z,6.70
2022-09-06T10:17:52.185Z,6.73
2022-09-06T10:18:43.913Z,6.76
2022-09-06T10:19:45.771Z,6.79
2022-09-06T10:20:46.650Z,6.80
2022-09-06T10:21:41.490Z,6.83
2022-09-06T10:22:56.840Z,6.85
2022-09-06T10:24:26.047Z,6.84
2022-09-06T10:24:50.169Z,6.83
2022-09-06T10:25:49.550Z,6.81
2022-09-06T10:26:51.176Z,6.78
2022-09-06T10:28:10.495Z,6.74
2022-09-06T10:28:45.273Z,6.71
2022-09-06T10:29:54.334Z,6.68
2022-09-06T10:30:51.680Z,6.66
2022-09-06T10:33:47.299Z,6.68
2022-09-06T10:34:51.267Z,6.70
2022-09-06T10:35:42.398Z,6.71
2022-09-06T10:36:48.929Z,6.74
2022-09-06T10:37:49.591Z,6.76
2022-09-06T10:38:53.348Z,6.79
2022-09-06T10:39:56.070Z,6.80
2022-09-06T10:42:45.294Z,6.78
2022-09-06T10:43:50.020Z,6.77
2022-09-06T10:44:48.138Z,6.73
2022-09-06T10:45:47.647Z,6.70
2022-09-06T10:46:46.509Z,6.65
2022-09-06T10:48:02.107Z,6.61
2022-09-06T10:48:45.432Z,6.56
2022-09-06T10:49:46.996Z,6.52
2022-09-06T10:50:46.539Z,6.49
2022-09-06T10:51:49.725Z,6.45
2022-09-06T10:52:45.699Z,6.42
2022-09-06T10:53:44.930Z,6.38
2022-09-06T10:54:47.052Z,6.35
2022-09-06T10:55:47.812Z,6.33
2022-09-06T10:56:44.662Z,6.30
2022-09-06T10:58:16.260Z,6.27
2022-09-06T10:59:54.240Z,6.23
2022-09-06T11:00:47.967Z,6.19
2022-09-06T11:01:47.291Z,6.17
2022-09-06T11:04:04.177Z,6.12
2022-09-06T11:05:47.491Z,6.08
2022-09-06T11:06:46.784Z,6.06
2022-09-06T11:08:57.750Z,6.02
2022-09-06T11:09:46.341Z,6.01
2022-09-06T11:10:48.303Z,5.99
2022-09-06T11:11:55.160Z,5.97
2022-09-06T11:12:53.157Z,5.95
2022-09-06T11:13:41.478Z,5.93
2022-09-06T11:14:42.023Z,5.92
2022-09-06T11:15:44.698Z,5.90
2022-09-06T11:16:48.875Z,5.88
2022-09-06T11:17:54.149Z,5.87
2022-09-06T11:18:45.699Z,5.86
2022-09-06T11:19:44.872Z,5.85
2022-09-06T11:22:01.064Z,5.84
2022-09-06T11:23:52.385Z,5.85
2022-09-06T11:26:56.467Z,5.86
2022-09-06T11:28:48.331Z,5.85
2022-09-06T11:29:44.865Z,5.84
2022-09-06T11:30:47.044Z,5.82
2022-09-06T11:32:17.219Z,5.79
2022-09-06T11:32:48.806Z,5.76
2022-09-06T11:33:41.885Z,5.74
2022-09-06T11:34:44.259Z,5.73
2022-09-06T11:35:43.218Z,5.71
2022-09-06T11:36:48.263Z,5.70
2022-09-06T11:37:44.809Z,5.69
2022-09-06T11:38:43.045Z,5.68
2022-09-06T11:40:45.677Z,5.67
2022-09-06T11:41:43.183Z,5.68
2022-09-06T11:43:50.026Z,5.69
2022-09-06T11:44:51.171Z,5.68
2022-09-06T11:45:52.912Z,5.70
2022-09-06T11:46:50.253Z,5.71
2022-09-06T11:49:41.988Z,5.72
2022-09-06T11:50:59.609Z,5.70
2022-09-06T11:51:44.064Z,5.69
2022-09-06T11:52:50.195Z,5.67
2022-09-06T11:53:50.225Z,5.66
2022-09-06T11:54:47.547Z,5.64
2022-09-06T11:55:48.750Z,5.63
2022-09-06T12:04:07.066Z,5.62
2022-09-06T12:05:00.352Z,5.61
2022-09-06T12:05:59.523Z,5.59
2022-09-06T12:06:44.074Z,5.58
2022-09-06T12:07:59.553Z,5.57
2022-09-06T12:09:43.989Z,5.56
2022-09-06T12:11:45.162Z,5.57
2022-09-06T12:12:44.744Z,5.58
2022-09-06T12:13:54.632Z,5.59
2022-09-06T12:14:43.340Z,5.61
2022-09-06T12:15:52.331Z,5.62
2022-09-06T12:19:53.026Z,5.61
2022-09-06T12:20:52.974Z,5.60
2022-09-06T12:21:43.279Z,5.58
2022-09-06T12:22:50.120Z,5.56
2022-09-06T12:23:43.582Z,5.55
2022-09-06T12:24:52.392Z,5.54
2022-09-06T12:25:52.803Z,5.53
2022-09-06T12:26:55.549Z,5.52
2022-09-06T12:34:45.111Z,5.52
2022-09-06T12:35:57.205Z,5.51
2022-09-06T12:37:59.671Z,5.52
2022-09-06T12:38:51.110Z,5.50
2022-09-06T12:41:45.810Z,5.49
2022-09-06T12:45:45.825Z,5.50
2022-09-06T12:46:48.173Z,5.51
2022-09-06T12:47:41.404Z,5.52
2022-09-06T12:48:44.582Z,5.53
2022-09-06T12:49:41.414Z,5.54
2022-09-06T12:50:41.701Z,5.56
2022-09-06T12:51:43.850Z,5.57
2022-09-06T12:52:59.399Z,5.59
2022-09-06T12:53:41.378Z,5.61
2022-09-06T12:54:48.285Z,5.62
2022-09-06T12:55:42.010Z,5.64
2022-09-06T12:56:41.406Z,5.65
2022-09-06T12:58:41.753Z,5.66
2022-09-06T12:59:49.227Z,5.67
2022-09-06T13:00:45.362Z,5.68
2022-09-06T13:01:47.160Z,5.69
2022-09-06T13:03:49.243Z,5.68
2022-09-06T13:04:44.259Z,5.69
2022-09-06T13:06:45.966Z,5.68
2022-09-06T13:10:44.860Z,5.67
2022-09-06T13:13:49.709Z,5.66
2022-09-06T13:15:47.543Z,5.65
2022-09-06T13:16:49.014Z,5.66
2022-09-06T13:20:41.432Z,5.67
2022-09-06T13:22:45.057Z,5.68
2022-09-06T13:23:44.186Z,5.67
2022-09-06T13:24:47.174Z,5.68
2022-09-06T13:25:50.404Z,5.69
2022-09-06T13:26:41.943Z,5.70
2022-09-06T13:28:41.643Z,5.71
2022-09-06T13:30:49.053Z,5.73
2022-09-06T13:32:48.591Z,5.74
2022-09-06T13:33:42.271Z,5.75
2022-09-06T13:35:41.361Z,5.77
2022-09-06T13:36:49.294Z,5.78
2022-09-06T13:39:44.891Z,5.79
2022-09-06T13:42:41.515Z,5.80
2022-09-06T13:47:41.411Z,5.79
2022-09-06T13:48:43.254Z,5.80
2022-09-06T13:51:43.528Z,5.79
2022-09-06T13:53:41.581Z,5.78
2022-09-06T13:54:41.374Z,5.77
2022-09-06T13:56:44.739Z,5.76
2022-09-06T14:00:41.622Z,5.77
2022-09-06T14:03:46.897Z,5.78
2022-09-06T14:04:41.339Z,5.79
2022-09-06T14:09:05.992Z,5.80
2022-09-06T14:09:41.347Z,5.81
2022-09-06T14:10:41.680Z,5.82
2022-09-06T14:11:47.502Z,5.83
2022-09-06T14:13:41.926Z,5.84
2022-09-06T14:14:41.377Z,5.85
2022-09-06T14:16:41.467Z,5.86
2022-09-06T14:19:41.555Z,5.85
2022-09-06T14:23:41.379Z,5.86
2022-09-06T14:25:41.439Z,5.87
2022-09-06T14:30:41.391Z,5.86
2022-09-06T14:31:41.715Z,5.87
2022-09-06T14:33:41.365Z,5.88
2022-09-06T14:34:41.278Z,5.89
2022-09-06T14:35:41.871Z,5.90
2022-09-06T14:37:41.448Z,5.91
2022-09-06T14:38:43.714Z,5.90
2022-09-06T14:41:41.353Z,5.89
2022-09-06T14:42:41.342Z,5.88
2022-09-06T14:43:43.633Z,5.87
2022-09-06T14:45:41.320Z,5.86
2022-09-06T14:47:41.428Z,5.85
2022-09-06T14:48:42.665Z,5.84
2022-09-06T14:49:41.841Z,5.83
2022-09-06T14:50:41.319Z,5.82
2022-09-06T14:51:41.430Z,5.81
2022-09-06T14:52:41.336Z,5.80
2022-09-06T14:53:42.799Z,5.79
2022-09-06T14:55:42.698Z,5.78
2022-09-06T14:56:43.733Z,5.77
2022-09-06T14:57:41.861Z,5.76
2022-09-06T14:58:43.386Z,5.75
2022-09-06T14:59:41.499Z,5.74
2022-09-06T15:00:41.311Z,5.73
2022-09-06T15:01:41.531Z,5.72
2022-09-06T15:02:41.490Z,5.71
2022-09-06T15:03:46.901Z,5.70
2022-09-06T15:13:42.919Z,5.69
2022-09-06T15:14:41.565Z,5.68
2022-09-06T15:16:44.066Z,5.67
2022-09-06T15:17:41.786Z,5.66
2022-09-06T15:19:41.358Z,5.65
2022-09-06T15:22:41.282Z,5.64
2022-09-06T15:24:41.711Z,5.65
2022-09-06T15:25:51.477Z,5.66
2022-09-06T15:26:42.769Z,5.65
2022-09-06T15:27:41.282Z,5.66
2022-09-06T15:29:42.616Z,5.67
2022-09-06T15:31:42.080Z,5.68
2022-09-06T15:32:41.348Z,5.70
2022-09-06T15:33:42.086Z,5.71
2022-09-06T15:34:41.254Z,5.72
2022-09-06T15:35:45.110Z,5.74
2022-09-06T15:36:41.269Z,5.77
2022-09-06T15:37:41.353Z,5.80
2022-09-06T15:38:45.487Z,5.82
2022-09-06T15:39:41.318Z,5.84
2022-09-06T15:40:41.287Z,5.87
2022-09-06T15:41:41.746Z,5.91
2022-09-06T15:42:41.432Z,5.94
2022-09-06T15:43:44.322Z,5.97
2022-09-06T15:44:41.779Z,5.98
2022-09-06T15:46:46.119Z,5.97
2022-09-06T15:47:41.498Z,5.96
2022-09-06T15:48:43.862Z,5.94
2022-09-06T15:49:41.413Z,5.93
2022-09-06T15:50:51.371Z,5.92
2022-09-06T15:51:42.332Z,5.91
2022-09-06T15:52:41.337Z,5.90
2022-09-06T15:53:41.479Z,5.88
2022-09-06T15:54:50.633Z,5.87
2022-09-06T15:56:41.713Z,5.86
2022-09-06T15:57:41.317Z,5.85
2022-09-06T15:58:41.324Z,5.84
2022-09-06T15:59:41.475Z,5.83
2022-09-06T16:01:41.497Z,5.82
2022-09-06T16:02:42.781Z,5.81
2022-09-06T16:03:47.618Z,5.79
2022-09-06T16:04:41.583Z,5.78
2022-09-06T16:07:44.534Z,5.76
2022-09-06T16:10:41.647Z,5.75
2022-09-06T16:11:41.770Z,5.76
2022-09-06T16:13:42.330Z,5.77
2022-09-06T16:14:41.295Z,5.78
2022-09-06T16:16:42.557Z,5.77
2022-09-06T16:19:41.297Z,5.76
2022-09-06T16:21:43.078Z,5.75
2022-09-06T16:23:42.608Z,5.76
2022-09-06T16:24:41.250Z,5.75
2022-09-06T16:25:41.247Z,5.74
2022-09-06T16:29:41.985Z,5.73
2022-09-06T16:36:41.671Z,5.72
2022-09-06T16:41:43.887Z,5.71
2022-09-06T16:43:41.296Z,5.70
2022-09-06T16:45:41.285Z,5.69
2022-09-06T16:47:41.398Z,5.68
2022-09-06T16:49:41.238Z,5.67
2022-09-06T16:53:43.053Z,5.66
2022-09-06T16:54:41.884Z,5.67
2022-09-06T16:55:41.231Z,5.69
2022-09-06T16:56:41.670Z,5.71
2022-09-06T16:58:43.597Z,5.73
2022-09-06T16:59:41.381Z,5.74
2022-09-06T17:00:42.832Z,5.75
2022-09-06T17:01:42.072Z,5.76
2022-09-06T17:02:45.045Z,5.77
2022-09-06T17:03:41.247Z,5.78
2022-09-06T17:04:41.291Z,5.79
2022-09-06T17:05:41.367Z,5.80
2022-09-06T17:06:44.937Z,5.81
2022-09-06T17:08:41.839Z,5.82
2022-09-06T17:09:41.749Z,5.84
2022-09-06T17:11:41.511Z,5.85
2022-09-06T17:12:41.211Z,5.86
2022-09-06T17:13:41.541Z,5.87
2022-09-06T17:14:41.307Z,5.88
2022-09-06T17:16:50.680Z,5.89
2022-09-06T17:22:41.720Z,5.88
2022-09-06T17:24:41.975Z,5.86
2022-09-06T17:25:43.670Z,5.85
2022-09-06T17:28:41.227Z,5.84
2022-09-06T17:33:41.432Z,5.83
2022-09-06T17:37:41.251Z,5.82
2022-09-06T17:39:41.407Z,5.83
2022-09-06T17:40:41.921Z,5.82
2022-09-06T17:44:41.251Z,5.81
2022-09-06T17:46:56.933Z,5.82
2022-09-06T17:47:41.232Z,5.83
2022-09-06T17:48:41.287Z,5.84
2022-09-06T17:49:41.462Z,5.85
2022-09-06T17:52:41.926Z,5.86
2022-09-06T17:54:41.170Z,5.87
2022-09-06T17:56:41.268Z,5.88
2022-09-06T17:58:42.141Z,5.89
2022-09-06T17:59:41.201Z,5.88
2022-09-06T18:05:41.348Z,5.87
2022-09-06T18:08:43.941Z,5.88
2022-09-06T18:11:42.230Z,5.89
2022-09-06T18:17:41.292Z,5.90
2022-09-06T18:19:41.251Z,5.89
2022-09-06T18:20:41.140Z,5.90
2022-09-06T18:21:41.517Z,5.89
2022-09-06T18:22:41.162Z,5.90
2022-09-06T18:24:41.276Z,5.91
2022-09-06T18:25:41.231Z,5.92
2022-09-06T18:26:41.777Z,5.93
2022-09-06T18:27:41.128Z,5.95
2022-09-06T18:28:41.502Z,5.98
2022-09-06T18:29:41.286Z,5.99
2022-09-06T18:30:41.618Z,6.00
2022-09-06T18:33:42.725Z,6.01